West Yellowstone, Montana
Current Conditions -  °F | °C
As of 4:56 AM on Sunday 23 Nov 2014 (Local Time) from KDIJ Reporting Station
Clear Clear  
Wind Chill: -6°   Ceiling: Unl
Heat Index: -6°   Visibility: 10mi
Dew Point: -7°   Wind: 3mph
Humidity: 92%   Direction: 90°E
Pressure: 29.94"   Gusts: NA
Location:  44.66°N, 111.1°W
Report Text: KDIJ 231156Z AUTO 09003KT 10SM CLR M06/M07 A2994 RMK AO2 53026 60000 70010 T10611072 11033 21077 SLP151
Loading
Personal Weather Stations






























Interactive Weather Map New forecast layout! Learn more

10-Day Weather Forecast

Advertisements
Track Severe Weather on mobile